Norfolk, Virginia
Traffic Map
Current Weather Conditions
Norfolk, Virginia
Clear
Clear
75°
Feels Like: 75°
Wind Chill: 75° Ceiling: Unl
Heat Index: 75° Visibility: 9mi
Dew Point: 72° Wind: 3mph
Humidity: 90% Direction: 250° (WSW)
Pressure: 29.89in Gusts: 0mph
Raw Report DataKORF 020951Z AUTO 25003KT 9SM CLR 24/22 A2989 RMK AO2 SLP121 T02390222 TSNO
Traffic Incident Summary
Active as of:
Severity:
Category:
InformationThere was an issue retrieving the traffic information for this location. Please try a different location or try again shortly.
Advertisements
Track Severe Weather on mobile